sensor_id;sensor_type;location;lat;lon;timestamp;pressure;altitude;pressure_sealevel;temperature;humidity
57038;BME280;59942;49.304;8.256;2023-10-08T00:01:10;101112.41;;;17.29;66.41
57038;BME280;59942;49.304;8.256;2023-10-08T00:03:45;101114.84;;;17.17;68.04
57038;BME280;59942;49.304;8.256;2023-10-08T00:06:25;101114.09;;;17.30;66.97
57038;BME280;59942;49.304;8.256;2023-10-08T00:08:52;101121.31;;;17.26;68.14
57038;BME280;59942;49.304;8.256;2023-10-08T00:11:26;101112.34;;;17.30;67.93
57038;BME280;59942;49.304;8.256;2023-10-08T00:13:55;101121.59;;;17.36;67.76
57038;BME280;59942;49.304;8.256;2023-10-08T00:16:23;101108.84;;;17.30;67.61
57038;BME280;59942;49.304;8.256;2023-10-08T00:18:50;101115.78;;;17.31;68.04
57038;BME280;59942;49.304;8.256;2023-10-08T00:21:19;101121.03;;;17.31;67.53
57038;BME280;59942;49.304;8.256;2023-10-08T00:23:46;101114.97;;;17.30;68.29
57038;BME280;59942;49.304;8.256;2023-10-08T00:26:20;101118.59;;;17.28;66.78
57038;BME280;59942;49.304;8.256;2023-10-08T00:29:04;101132.06;;;17.36;66.95
57038;BME280;59942;49.304;8.256;2023-10-08T00:31:44;101109.97;;;17.26;68.00
57038;BME280;59942;49.304;8.256;2023-10-08T00:34:19;101123.25;;;17.23;68.46
57038;BME280;59942;49.304;8.256;2023-10-08T00:36:47;101123.25;;;17.23;69.11
57038;BME280;59942;49.304;8.256;2023-10-08T00:39:14;101125.97;;;17.21;69.28
57038;BME280;59942;49.304;8.256;2023-10-08T00:41:44;101126.25;;;17.16;69.26
57038;BME280;59942;49.304;8.256;2023-10-08T00:44:13;101089.19;;;16.92;67.81
57038;BME280;59942;49.304;8.256;2023-10-08T00:46:45;101107.75;;;17.04;69.68
57038;BME280;59942;49.304;8.256;2023-10-08T00:49:22;101112.09;;;17.05;70.22
57038;BME280;59942;49.304;8.256;2023-10-08T00:51:53;101122.47;;;17.06;68.22
57038;BME280;59942;49.304;8.256;2023-10-08T00:54:36;101120.06;;;17.17;69.92
57038;BME280;59942;49.304;8.256;2023-10-08T00:57:23;101117.78;;;17.11;69.73
57038;BME280;59942;49.304;8.256;2023-10-08T00:59:52;101130.28;;;17.22;69.82
57038;BME280;59942;49.304;8.256;2023-10-08T01:02:26;101092.34;;;16.83;70.00
57038;BME280;59942;49.304;8.256;2023-10-08T01:05:09;101122.28;;;17.09;67.99
57038;BME280;59942;49.304;8.256;2023-10-08T01:07:40;101128.84;;;17.16;69.53
57038;BME280;59942;49.304;8.256;2023-10-08T01:10:10;101133.56;;;16.95;70.76
57038;BME280;59942;49.304;8.256;2023-10-08T01:12:39;101134.00;;;16.72;70.74
57038;BME280;59942;49.304;8.256;2023-10-08T01:15:26;101126.06;;;16.57;68.85
57038;BME280;59942;49.304;8.256;2023-10-08T01:17:57;101119.75;;;16.45;72.90
57038;BME280;59942;49.304;8.256;2023-10-08T01:20:27;101125.38;;;16.22;74.59
57038;BME280;59942;49.304;8.256;2023-10-08T01:23:06;101122.28;;;16.31;74.02
57038;BME280;59942;49.304;8.256;2023-10-08T01:25:44;101130.31;;;16.44;70.45
57038;BME280;59942;49.304;8.256;2023-10-08T01:28:20;101127.00;;;16.40;70.82
57038;BME280;59942;49.304;8.256;2023-10-08T01:30:53;101126.16;;;16.40;71.96
57038;BME280;59942;49.304;8.256;2023-10-08T01:33:21;101127.69;;;16.44;73.34
57038;BME280;59942;49.304;8.256;2023-10-08T01:35:48;101126.44;;;16.35;72.18
57038;BME280;59942;49.304;8.256;2023-10-08T01:38:15;101139.41;;;16.05;75.45
57038;BME280;59942;49.304;8.256;2023-10-08T01:40:43;101140.22;;;16.05;75.23
57038;BME280;59942;49.304;8.256;2023-10-08T01:43:17;101140.81;;;15.77;75.06
57038;BME280;59942;49.304;8.256;2023-10-08T01:45:44;101134.31;;;16.02;70.76
57038;BME280;59942;49.304;8.256;2023-10-08T01:48:15;101144.03;;;16.15;71.14
57038;BME280;59942;49.304;8.256;2023-10-08T01:50:47;101146.69;;;15.82;74.74
57038;BME280;59942;49.304;8.256;2023-10-08T01:53:33;101141.00;;;15.56;75.08
57038;BME280;59942;49.304;8.256;2023-10-08T01:56:00;101150.03;;;15.84;72.27
57038;BME280;59942;49.304;8.256;2023-10-08T01:58:27;101153.81;;;15.61;74.81
57038;BME280;59942;49.304;8.256;2023-10-08T02:00:54;101144.78;;;15.33;78.22
57038;BME280;59942;49.304;8.256;2023-10-08T02:03:26;101149.00;;;15.18;79.99
57038;BME280;59942;49.304;8.256;2023-10-08T02:05:54;101156.63;;;15.23;79.40
57038;BME280;59942;49.304;8.256;2023-10-08T02:08:25;101142.84;;;15.37;78.60
57038;BME280;59942;49.304;8.256;2023-10-08T02:10:52;101148.06;;;15.19;78.92
57038;BME280;59942;49.304;8.256;2023-10-08T02:13:19;101152.53;;;15.00;79.11
57038;BME280;59942;49.304;8.256;2023-10-08T02:15:49;101156.19;;;14.96;79.10
57038;BME280;59942;49.304;8.256;2023-10-08T02:18:20;101152.75;;;14.95;78.87
57038;BME280;59942;49.304;8.256;2023-10-08T02:20:50;101147.00;;;15.23;76.44
57038;BME280;59942;49.304;8.256;2023-10-08T02:23:17;101149.44;;;15.44;73.50
57038;BME280;59942;49.304;8.256;2023-10-08T02:25:44;101145.97;;;15.61;72.56
57038;BME280;59942;49.304;8.256;2023-10-08T02:28:11;101153.81;;;15.78;70.41
57038;BME280;59942;49.304;8.256;2023-10-08T02:30:43;101148.28;;;15.85;71.37
57038;BME280;59942;49.304;8.256;2023-10-08T02:33:09;101137.91;;;15.83;70.57
57038;BME280;59942;49.304;8.256;2023-10-08T02:35:44;101140.94;;;15.91;69.03
57038;BME280;59942;49.304;8.256;2023-10-08T02:38:14;101135.72;;;15.74;69.63
57038;BME280;59942;49.304;8.256;2023-10-08T02:40:45;101126.19;;;15.73;68.98
57038;BME280;59942;49.304;8.256;2023-10-08T02:43:14;101134.66;;;15.78;69.27
57038;BME280;59942;49.304;8.256;2023-10-08T02:45:45;101132.13;;;15.25;74.14
57038;BME280;59942;49.304;8.256;2023-10-08T02:48:16;101138.78;;;15.49;72.13
57038;BME280;59942;49.304;8.256;2023-10-08T02:50:43;101141.84;;;15.57;71.36
57038;BME280;59942;49.304;8.256;2023-10-08T02:53:13;101145.16;;;15.60;70.49
57038;BME280;59942;49.304;8.256;2023-10-08T02:55:47;101148.69;;;15.59;69.30
57038;BME280;59942;49.304;8.256;2023-10-08T02:58:14;101141.63;;;15.61;70.80
57038;BME280;59942;49.304;8.256;2023-10-08T03:00:42;101142.31;;;15.13;73.53
57038;BME280;59942;49.304;8.256;2023-10-08T03:03:09;101158.50;;;14.65;74.97
57038;BME280;59942;49.304;8.256;2023-10-08T03:05:47;101160.53;;;14.58;75.77
57038;BME280;59942;49.304;8.256;2023-10-08T03:08:14;101161.88;;;14.67;74.30
57038;BME280;59942;49.304;8.256;2023-10-08T03:10:52;101164.44;;;15.05;71.40
57038;BME280;59942;49.304;8.256;2023-10-08T03:13:22;101157.38;;;15.25;70.38
57038;BME280;59942;49.304;8.256;2023-10-08T03:15:49;101162.22;;;15.33;70.19
57038;BME280;59942;49.304;8.256;2023-10-08T03:18:25;101172.44;;;15.02;72.55
57038;BME280;59942;49.304;8.256;2023-10-08T03:20:51;101174.38;;;14.61;75.27
57038;BME280;59942;49.304;8.256;2023-10-08T03:23:21;101164.41;;;14.88;73.32
57038;BME280;59942;49.304;8.256;2023-10-08T03:26:02;101157.38;;;15.07;71.62
57038;BME280;59942;49.304;8.256;2023-10-08T03:28:38;101152.84;;;15.11;71.05
57038;BME280;59942;49.304;8.256;2023-10-08T03:31:08;101149.91;;;15.00;69.90
57038;BME280;59942;49.304;8.256;2023-10-08T03:33:43;101152.84;;;15.11;70.82
57038;BME280;59942;49.304;8.256;2023-10-08T03:36:15;101162.81;;;15.03;69.38
57038;BME280;59942;49.304;8.256;2023-10-08T03:38:48;101162.06;;;15.01;70.70
57038;BME280;59942;49.304;8.256;2023-10-08T03:41:22;101143.50;;;14.70;72.02
57038;BME280;59942;49.304;8.256;2023-10-08T03:43:55;101135.44;;;14.56;71.94
57038;BME280;59942;49.304;8.256;2023-10-08T03:46:32;101141.28;;;14.61;73.57
57038;BME280;59942;49.304;8.256;2023-10-08T03:49:05;101145.88;;;14.56;71.88
57038;BME280;59942;49.304;8.256;2023-10-08T03:51:52;101137.63;;;14.65;71.20
57038;BME280;59942;49.304;8.256;2023-10-08T03:54:19;101140.81;;;14.72;71.55
57038;BME280;59942;49.304;8.256;2023-10-08T03:56:57;101140.94;;;14.69;71.16
57038;BME280;59942;49.304;8.256;2023-10-08T03:59:24;101131.97;;;14.74;69.60
57038;BME280;59942;49.304;8.256;2023-10-08T04:01:59;101138.88;;;14.75;71.35
57038;BME280;59942;49.304;8.256;2023-10-08T04:04:36;101121.66;;;14.71;70.33
57038;BME280;59942;49.304;8.256;2023-10-08T04:07:20;101133.31;;;14.45;70.73
57038;BME280;59942;49.304;8.256;2023-10-08T04:10:00;101138.25;;;14.13;74.00
57038;BME280;59942;49.304;8.256;2023-10-08T04:12:37;101149.03;;;14.05;75.33
57038;BME280;59942;49.304;8.256;2023-10-08T04:15:10;101151.13;;;13.78;76.51
57038;BME280;59942;49.304;8.256;2023-10-08T04:17:39;101149.03;;;14.05;73.69
57038;BME280;59942;49.304;8.256;2023-10-08T04:20:14;101115.97;;;14.06;73.48
57038;BME280;59942;49.304;8.256;2023-10-08T04:23:02;101147.34;;;14.04;73.08
57038;BME280;59942;49.304;8.256;2023-10-08T04:25:31;101161.06;;;14.08;72.66
57038;BME280;59942;49.304;8.256;2023-10-08T04:27:59;101158.38;;;14.30;72.04
57038;BME280;59942;49.304;8.256;2023-10-08T04:30:26;101164.13;;;14.18;72.30
57038;BME280;59942;49.304;8.256;2023-10-08T04:33:05;101174.25;;;14.05;75.50
57038;BME280;59942;49.304;8.256;2023-10-08T04:35:41;101177.72;;;14.05;74.79
57038;BME280;59942;49.304;8.256;2023-10-08T04:38:20;101163.97;;;14.21;74.10
57038;BME280;59942;49.304;8.256;2023-10-08T04:40:50;101158.13;;;13.76;76.02
57038;BME280;59942;49.304;8.256;2023-10-08T04:43:21;101161.16;;;13.67;75.21
57038;BME280;59942;49.304;8.256;2023-10-08T04:45:58;101156.31;;;13.78;76.14
57038;BME280;59942;49.304;8.256;2023-10-08T04:48:25;101158.59;;;13.86;73.66
57038;BME280;59942;49.304;8.256;2023-10-08T04:50:59;101164.19;;;13.35;77.01
57038;BME280;59942;49.304;8.256;2023-10-08T04:53:30;101152.91;;;13.76;75.31
57038;BME280;59942;49.304;8.256;2023-10-08T04:56:05;101159.94;;;13.95;72.95
57038;BME280;59942;49.304;8.256;2023-10-08T04:58:34;101158.28;;;14.13;71.06
57038;BME280;59942;49.304;8.256;2023-10-08T05:01:04;101160.59;;;14.19;69.92
57038;BME280;59942;49.304;8.256;2023-10-08T05:03:51;101164.75;;;14.04;72.84
57038;BME280;59942;49.304;8.256;2023-10-08T05:06:26;101158.34;;;14.11;71.89
57038;BME280;59942;49.304;8.256;2023-10-08T05:09:10;101125.41;;;13.89;72.21
57038;BME280;59942;49.304;8.256;2023-10-08T05:11:51;101165.16;;;13.95;71.44
57038;BME280;59942;49.304;8.256;2023-10-08T05:14:19;101171.78;;;14.02;70.05
57038;BME280;59942;49.304;8.256;2023-10-08T05:17:04;101139.88;;;13.97;70.14
57038;BME280;59942;49.304;8.256;2023-10-08T05:19:46;101162.00;;;14.07;71.96
57038;BME280;59942;49.304;8.256;2023-10-08T05:22:33;101177.19;;;13.78;73.39
57038;BME280;59942;49.304;8.256;2023-10-08T05:25:00;101180.97;;;13.71;73.43
57038;BME280;59942;49.304;8.256;2023-10-08T05:27:45;101172.72;;;13.80;73.42
57038;BME280;59942;49.304;8.256;2023-10-08T05:30:19;101169.94;;;13.64;73.83
57038;BME280;59942;49.304;8.256;2023-10-08T05:33:05;101159.50;;;13.21;76.44
57038;BME280;59942;49.304;8.256;2023-10-08T05:35:36;101159.47;;;13.23;76.38
57038;BME280;59942;49.304;8.256;2023-10-08T05:38:11;101159.84;;;13.14;76.27
57038;BME280;59942;49.304;8.256;2023-10-08T05:40:58;101158.09;;;13.14;75.35
57038;BME280;59942;49.304;8.256;2023-10-08T05:43:35;101152.25;;;13.30;74.20
57038;BME280;59942;49.304;8.256;2023-10-08T05:46:12;101146.34;;;13.26;75.60
57038;BME280;59942;49.304;8.256;2023-10-08T05:48:53;101147.00;;;13.09;75.95
57038;BME280;59942;49.304;8.256;2023-10-08T05:51:37;101155.59;;;13.11;76.52
57038;BME280;59942;49.304;8.256;2023-10-08T05:54:25;101163.47;;;13.10;78.66
57038;BME280;59942;49.304;8.256;2023-10-08T05:56:52;101171.00;;;13.17;77.38
57038;BME280;59942;49.304;8.256;2023-10-08T05:59:45;101171.34;;;13.30;75.92
57038;BME280;59942;49.304;8.256;2023-10-08T06:02:34;101170.72;;;13.24;77.95
57038;BME280;59942;49.304;8.256;2023-10-08T06:07:52;101173.81;;;13.33;77.81
57038;BME280;59942;49.304;8.256;2023-10-08T06:10:27;101177.16;;;13.37;77.53
57038;BME280;59942;49.304;8.256;2023-10-08T06:12:59;101189.22;;;13.40;78.09
57038;BME280;59942;49.304;8.256;2023-10-08T06:15:37;101188.13;;;13.45;76.53
57038;BME280;59942;49.304;8.256;2023-10-08T06:20:56;101179.53;;;13.64;76.68
57038;BME280;59942;49.304;8.256;2023-10-08T06:23:29;101186.41;;;13.65;76.87
57038;BME280;59942;49.304;8.256;2023-10-08T06:25:59;101177.50;;;13.50;78.11
57038;BME280;59942;49.304;8.256;2023-10-08T06:28:43;101189.00;;;13.65;74.32
57038;BME280;59942;49.304;8.256;2023-10-08T06:31:10;101198.59;;;13.85;73.89
57038;BME280;59942;49.304;8.256;2023-10-08T06:33:44;101200.41;;;14.03;75.62
57038;BME280;59942;49.304;8.256;2023-10-08T06:36:11;101201.72;;;13.93;76.71
57038;BME280;59942;49.304;8.256;2023-10-08T06:38:47;101206.53;;;13.82;77.72
57038;BME280;59942;49.304;8.256;2023-10-08T06:41:17;101210.50;;;14.11;75.07
57038;BME280;59942;49.304;8.256;2023-10-08T06:44:06;101210.94;;;14.21;74.17
57038;BME280;59942;49.304;8.256;2023-10-08T06:46:33;101206.38;;;14.26;75.70
57038;BME280;59942;49.304;8.256;2023-10-08T06:49:02;101209.66;;;14.30;73.50
57038;BME280;59942;49.304;8.256;2023-10-08T06:51:35;101205.19;;;14.33;75.88
57038;BME280;59942;49.304;8.256;2023-10-08T06:54:02;101203.63;;;14.48;73.25
57038;BME280;59942;49.304;8.256;2023-10-08T06:56:30;101201.66;;;14.53;72.61
57038;BME280;59942;49.304;8.256;2023-10-08T06:58:58;101187.06;;;14.49;74.13
57038;BME280;59942;49.304;8.256;2023-10-08T07:01:26;101180.63;;;14.56;75.31
57038;BME280;59942;49.304;8.256;2023-10-08T07:03:55;101189.13;;;14.62;75.91
57038;BME280;59942;49.304;8.256;2023-10-08T07:06:30;101194.00;;;14.69;75.17
57038;BME280;59942;49.304;8.256;2023-10-08T07:09:04;101192.53;;;14.64;75.71
57038;BME280;59942;49.304;8.256;2023-10-08T07:11:40;101206.81;;;14.74;75.92
57038;BME280;59942;49.304;8.256;2023-10-08T07:14:10;101207.25;;;14.84;75.35
57038;BME280;59942;49.304;8.256;2023-10-08T07:16:37;101217.25;;;14.93;75.29
57038;BME280;59942;49.304;8.256;2023-10-08T07:19:08;101208.19;;;15.00;74.55
57038;BME280;59942;49.304;8.256;2023-10-08T07:21:45;101229.13;;;15.18;74.90
57038;BME280;59942;49.304;8.256;2023-10-08T07:24:15;101223.16;;;15.33;73.85
57038;BME280;59942;49.304;8.256;2023-10-08T07:26:44;101223.97;;;15.53;74.62
57038;BME280;59942;49.304;8.256;2023-10-08T07:29:14;101224.47;;;15.59;73.73
57038;BME280;59942;49.304;8.256;2023-10-08T07:31:45;101232.88;;;15.66;74.37
57038;BME280;59942;49.304;8.256;2023-10-08T07:34:21;101226.63;;;16.04;72.66
57038;BME280;59942;49.304;8.256;2023-10-08T07:36:50;101227.03;;;16.29;70.73
57038;BME280;59942;49.304;8.256;2023-10-08T07:39:19;101238.44;;;16.44;71.99
57038;BME280;59942;49.304;8.256;2023-10-08T07:41:53;101241.69;;;16.49;70.78
57038;BME280;59942;49.304;8.256;2023-10-08T07:44:21;101247.69;;;16.67;71.45
57038;BME280;59942;49.304;8.256;2023-10-08T07:46:49;101245.81;;;16.70;72.59
57038;BME280;59942;49.304;8.256;2023-10-08T07:49:16;101256.31;;;16.86;68.95
57038;BME280;59942;49.304;8.256;2023-10-08T07:51:43;101256.47;;;17.14;69.90
57038;BME280;59942;49.304;8.256;2023-10-08T07:54:21;101259.69;;;17.35;70.05
57038;BME280;59942;49.304;8.256;2023-10-08T07:56:50;101263.81;;;17.40;69.88
57038;BME280;59942;49.304;8.256;2023-10-08T07:59:18;101264.44;;;17.59;69.32
57038;BME280;59942;49.304;8.256;2023-10-08T08:01:44;101271.97;;;17.65;68.98
57038;BME280;59942;49.304;8.256;2023-10-08T08:04:12;101270.72;;;17.57;69.63
57038;BME280;59942;49.304;8.256;2023-10-08T08:06:49;101270.63;;;17.58;69.42
57038;BME280;59942;49.304;8.256;2023-10-08T08:09:19;101270.38;;;17.77;68.98
57038;BME280;59942;49.304;8.256;2023-10-08T08:11:46;101272.25;;;17.91;68.21
57038;BME280;59942;49.304;8.256;2023-10-08T08:14:14;101280.66;;;17.96;68.28
57038;BME280;59942;49.304;8.256;2023-10-08T08:16:45;101269.47;;;18.09;67.68
57038;BME280;59942;49.304;8.256;2023-10-08T08:19:15;101269.75;;;17.88;68.29
57038;BME280;59942;49.304;8.256;2023-10-08T08:21:45;101275.84;;;18.19;68.20
57038;BME280;59942;49.304;8.256;2023-10-08T08:24:14;101274.41;;;18.13;68.84
57038;BME280;59942;49.304;8.256;2023-10-08T08:26:55;101269.47;;;18.09;68.84
57038;BME280;59942;49.304;8.256;2023-10-08T08:29:35;101272.16;;;17.93;68.67
57038;BME280;59942;49.304;8.256;2023-10-08T08:32:11;101270.19;;;18.11;67.66
57038;BME280;59942;49.304;8.256;2023-10-08T08:34:42;101272.09;;;18.23;68.41
57038;BME280;59942;49.304;8.256;2023-10-08T08:37:11;101270.69;;;18.32;67.91
57038;BME280;59942;49.304;8.256;2023-10-08T08:39:38;101284.09;;;18.42;67.54
57038;BME280;59942;49.304;8.256;2023-10-08T08:42:05;101283.44;;;18.52;67.48
57038;BME280;59942;49.304;8.256;2023-10-08T08:44:37;101283.72;;;18.62;67.33
57038;BME280;59942;49.304;8.256;2023-10-08T08:47:13;101287.38;;;18.60;67.55
57038;BME280;59942;49.304;8.256;2023-10-08T08:49:48;101289.59;;;18.08;69.86
57038;BME280;59942;49.304;8.256;2023-10-08T08:52:14;101289.59;;;18.51;68.16
57038;BME280;59942;49.304;8.256;2023-10-08T08:54:41;101293.94;;;18.23;68.96
57038;BME280;59942;49.304;8.256;2023-10-08T08:57:11;101293.81;;;18.68;67.79
57038;BME280;59942;49.304;8.256;2023-10-08T08:59:47;101271.00;;;18.98;66.96
57038;BME280;59942;49.304;8.256;2023-10-08T09:02:17;101268.78;;;19.19;65.05
57038;BME280;59942;49.304;8.256;2023-10-08T09:04:45;101300.75;;;19.53;65.56
57038;BME280;59942;49.304;8.256;2023-10-08T09:07:13;101289.69;;;19.48;63.45
57038;BME280;59942;49.304;8.256;2023-10-08T09:09:40;101293.06;;;19.22;65.55
57038;BME280;59942;49.304;8.256;2023-10-08T09:12:07;101293.94;;;19.50;65.78
57038;BME280;59942;49.304;8.256;2023-10-08T09:14:37;101291.63;;;19.71;65.11
57038;BME280;59942;49.304;8.256;2023-10-08T09:17:05;101300.16;;;19.07;64.32
57038;BME280;59942;49.304;8.256;2023-10-08T09:19:38;101296.34;;;19.53;66.25
57038;BME280;59942;49.304;8.256;2023-10-08T09:22:07;101295.59;;;19.78;65.70
57038;BME280;59942;49.304;8.256;2023-10-08T09:24:36;101292.59;;;19.70;64.82
57038;BME280;59942;49.304;8.256;2023-10-08T09:27:07;101294.16;;;20.13;64.69
57038;BME280;59942;49.304;8.256;2023-10-08T09:29:35;101304.16;;;20.21;61.70
57038;BME280;59942;49.304;8.256;2023-10-08T09:32:09;101268.47;;;20.17;61.50
57038;BME280;59942;49.304;8.256;2023-10-08T09:34:36;101305.09;;;20.45;63.54
57038;BME280;59942;49.304;8.256;2023-10-08T09:37:03;101313.50;;;20.63;62.62
57038;BME280;59942;49.304;8.256;2023-10-08T09:39:30;101306.38;;;20.53;63.08
57038;BME280;59942;49.304;8.256;2023-10-08T09:42:02;101303.41;;;20.57;63.55
57038;BME280;59942;49.304;8.256;2023-10-08T09:44:33;101296.69;;;21.03;59.59
57038;BME280;59942;49.304;8.256;2023-10-08T09:47:07;101288.09;;;21.12;61.15
57038;BME280;59942;49.304;8.256;2023-10-08T09:49:54;101277.66;;;20.61;58.73
57038;BME280;59942;49.304;8.256;2023-10-08T09:53:15;101293.13;;;21.15;59.62
57038;BME280;59942;49.304;8.256;2023-10-08T09:55:26;101297.25;;;20.82;60.68
57038;BME280;59942;49.304;8.256;2023-10-08T09:57:53;101299.63;;;20.48;59.25
57038;BME280;59942;49.304;8.256;2023-10-08T10:00:23;101273.53;;;20.82;59.47
57038;BME280;59942;49.304;8.256;2023-10-08T10:02:59;101292.56;;;21.23;60.21
57038;BME280;59942;49.304;8.256;2023-10-08T10:05:30;101290.47;;;21.53;60.88
57038;BME280;59942;49.304;8.256;2023-10-08T10:07:58;101284.72;;;21.59;57.37
57038;BME280;59942;49.304;8.256;2023-10-08T10:10:28;101286.06;;;20.92;58.62
57038;BME280;59942;49.304;8.256;2023-10-08T10:13:06;101294.44;;;21.58;60.77
57038;BME280;59942;49.304;8.256;2023-10-08T10:15:39;101288.22;;;21.35;56.99
57038;BME280;59942;49.304;8.256;2023-10-08T10:18:26;101290.16;;;21.44;57.32
57038;BME280;59942;49.304;8.256;2023-10-08T10:23:35;101297.25;;;21.44;61.90
57038;BME280;59942;49.304;8.256;2023-10-08T10:26:03;101291.31;;;21.89;59.99
57038;BME280;59942;49.304;8.256;2023-10-08T10:28:30;101298.97;;;21.56;56.20
57038;BME280;59942;49.304;8.256;2023-10-08T10:30:57;101286.69;;;21.44;58.41
57038;BME280;59942;49.304;8.256;2023-10-08T10:33:31;101285.97;;;21.77;60.82
57038;BME280;59942;49.304;8.256;2023-10-08T10:36:00;101277.59;;;21.83;55.91
57038;BME280;59942;49.304;8.256;2023-10-08T10:38:27;101267.97;;;21.71;58.20
57038;BME280;59942;49.304;8.256;2023-10-08T10:40:56;101268.88;;;21.94;59.32
57038;BME280;59942;49.304;8.256;2023-10-08T10:43:26;101272.38;;;22.51;57.66
57038;BME280;59942;49.304;8.256;2023-10-08T10:46:00;101266.59;;;22.24;58.27
57038;BME280;59942;49.304;8.256;2023-10-08T10:48:46;101265.28;;;22.29;53.72
57038;BME280;59942;49.304;8.256;2023-10-08T10:51:23;101269.41;;;22.33;53.55
57038;BME280;59942;49.304;8.256;2023-10-08T10:53:50;101268.75;;;22.30;55.84
57038;BME280;59942;49.304;8.256;2023-10-08T10:56:36;101260.31;;;22.93;52.95
57038;BME280;59942;49.304;8.256;2023-10-08T10:59:11;101256.53;;;22.63;53.01
57038;BME280;59942;49.304;8.256;2023-10-08T11:01:54;101255.56;;;22.30;51.99
57038;BME280;59942;49.304;8.256;2023-10-08T11:04:34;101247.84;;;22.72;55.52
57038;BME280;59942;49.304;8.256;2023-10-08T11:07:18;101238.41;;;22.47;52.10
57038;BME280;59942;49.304;8.256;2023-10-08T11:09:50;101245.78;;;22.87;51.81
57038;BME280;59942;49.304;8.256;2023-10-08T11:12:18;101245.50;;;23.13;54.40
57038;BME280;59942;49.304;8.256;2023-10-08T11:14:49;101249.50;;;23.28;52.53
57038;BME280;59942;49.304;8.256;2023-10-08T11:17:24;101245.84;;;23.40;49.63
57038;BME280;59942;49.304;8.256;2023-10-08T11:19:52;101247.88;;;24.21;49.94
57038;BME280;59942;49.304;8.256;2023-10-08T11:22:18;101247.22;;;24.29;47.30
57038;BME280;59942;49.304;8.256;2023-10-08T11:24:49;101251.97;;;24.35;49.94
57038;BME280;59942;49.304;8.256;2023-10-08T11:27:20;101239.88;;;24.52;46.16
57038;BME280;59942;49.304;8.256;2023-10-08T11:29:59;101229.53;;;25.09;46.11
57038;BME280;59942;49.304;8.256;2023-10-08T11:32:27;101238.00;;;25.81;45.86
57038;BME280;59942;49.304;8.256;2023-10-08T11:35:00;101233.81;;;25.69;48.01
57038;BME280;59942;49.304;8.256;2023-10-08T11:37:31;101228.06;;;25.83;43.85
57038;BME280;59942;49.304;8.256;2023-10-08T11:40:02;101217.28;;;25.85;44.27
57038;BME280;59942;49.304;8.256;2023-10-08T11:42:44;101220.84;;;25.56;45.93
57038;BME280;59942;49.304;8.256;2023-10-08T11:45:11;101206.91;;;25.92;46.90
57038;BME280;59942;49.304;8.256;2023-10-08T11:47:51;101209.72;;;26.00;44.93
57038;BME280;59942;49.304;8.256;2023-10-08T11:50:29;101209.13;;;25.39;45.85
57038;BME280;59942;49.304;8.256;2023-10-08T11:53:02;101211.34;;;26.11;46.15
57038;BME280;59942;49.304;8.256;2023-10-08T11:55:32;101204.22;;;26.39;43.11
57038;BME280;59942;49.304;8.256;2023-10-08T11:58:04;101204.91;;;26.13;41.93
57038;BME280;59942;49.304;8.256;2023-10-08T12:00:41;101208.50;;;26.22;41.87
57038;BME280;59942;49.304;8.256;2023-10-08T12:03:13;101206.94;;;26.47;42.09
57038;BME280;59942;49.304;8.256;2023-10-08T12:05:48;101211.13;;;26.50;40.85
57038;BME280;59942;49.304;8.256;2023-10-08T12:08:18;101217.75;;;26.74;40.75
57038;BME280;59942;49.304;8.256;2023-10-08T12:10:47;101221.56;;;26.61;41.56
57038;BME280;59942;49.304;8.256;2023-10-08T12:13:14;101214.19;;;26.55;40.89
57038;BME280;59942;49.304;8.256;2023-10-08T12:15:46;101210.25;;;26.31;40.72
57038;BME280;59942;49.304;8.256;2023-10-08T12:18:13;101218.75;;;26.63;43.36
57038;BME280;59942;49.304;8.256;2023-10-08T12:20:53;101214.16;;;26.83;41.76
57038;BME280;59942;49.304;8.256;2023-10-08T12:23:20;101214.63;;;25.85;42.55
57038;BME280;59942;49.304;8.256;2023-10-08T12:25:56;101211.94;;;26.96;41.19
57038;BME280;59942;49.304;8.256;2023-10-08T12:28:23;101205.88;;;26.68;43.77
57038;BME280;59942;49.304;8.256;2023-10-08T12:30:51;101203.78;;;26.62;40.30
57038;BME280;59942;49.304;8.256;2023-10-08T12:33:20;101190.41;;;27.26;41.43
57038;BME280;59942;49.304;8.256;2023-10-08T12:35:46;101214.44;;;27.34;40.72
57038;BME280;59942;49.304;8.256;2023-10-08T12:38:14;101211.28;;;27.57;40.49
57038;BME280;59942;49.304;8.256;2023-10-08T12:40:41;101202.47;;;27.90;41.42
57038;BME280;59942;49.304;8.256;2023-10-08T12:43:24;101202.94;;;27.86;38.65
57038;BME280;59942;49.304;8.256;2023-10-08T12:45:54;101200.47;;;28.19;40.75
57038;BME280;59942;49.304;8.256;2023-10-08T12:48:25;101204.09;;;27.49;42.49
57038;BME280;59942;49.304;8.256;2023-10-08T12:50:55;101192.91;;;28.06;37.65
57038;BME280;59942;49.304;8.256;2023-10-08T12:53:28;101200.16;;;27.61;42.17
57038;BME280;59942;49.304;8.256;2023-10-08T12:56:07;101200.97;;;27.62;38.58
57038;BME280;59942;49.304;8.256;2023-10-08T12:58:42;101207.88;;;27.99;42.67
57038;BME280;59942;49.304;8.256;2023-10-08T13:01:15;101199.81;;;28.17;39.82
57038;BME280;59942;49.304;8.256;2023-10-08T13:03:45;101199.75;;;27.30;39.12
57038;BME280;59942;49.304;8.256;2023-10-08T13:06:17;101200.13;;;27.87;39.51
57038;BME280;59942;49.304;8.256;2023-10-08T13:08:55;101199.31;;;28.21;42.73
57038;BME280;59942;49.304;8.256;2023-10-08T13:11:23;101207.13;;;28.15;42.47
57038;BME280;59942;49.304;8.256;2023-10-08T13:13:51;101207.06;;;28.49;42.31
57038;BME280;59942;49.304;8.256;2023-10-08T13:16:19;101190.75;;;26.86;39.56
57038;BME280;59942;49.304;8.256;2023-10-08T13:18:48;101182.69;;;26.78;46.29
57038;BME280;59942;49.304;8.256;2023-10-08T13:21:15;101182.84;;;27.13;45.31
57038;BME280;59942;49.304;8.256;2023-10-08T13:23:42;101194.97;;;28.20;42.34
57038;BME280;59942;49.304;8.256;2023-10-08T13:26:08;101184.94;;;28.65;39.36